Time;durP1;ratioP1;P1;durP2;ratioP2;P2;SDS_P1;SDS_P2;PMS_P1;PMS_P2;Temp;Humidity;BMP_temperature;BMP_pressure;BME280_temperature;BME280_humidity;BME280_pressure;Samples;Min_cycle;Max_cycle;Signal;HPM_P1;HPM_P2
2022/07/05 01:54:40;;;;;;;2.47;1.27;;;;;;;18.88;53.70;96948.19;5233531;23;20060;-80
2022/07/05 02:11:00;;;;;;;1.63;1.10;;;;;;;18.66;52.38;96960.28;4927219;29;20033;-80
2022/07/05 02:13:49;;;;;;;2.25;1.48;;;;;;;18.60;52.36;96956.69;4927190;29;20036;-80
2022/07/05 02:16:30;;;;;;;2.70;1.15;;;;;;;18.55;52.68;96958.41;4927232;29;20036;-80
2022/07/05 02:19:14;;;;;;;2.85;1.00;;;;;;;18.46;52.49;96958.69;4926208;29;20053;-81
2022/07/05 02:27:47;;;;;;;2.13;1.20;;;;;;;18.27;52.74;96951.81;5535369;23;20061;-81
2022/07/05 02:30:24;;;;;;;1.17;1.08;;;;;;;18.17;53.16;96955.00;4925743;29;20040;-81
2022/07/05 02:32:56;;;;;;;1.17;1.00;;;;;;;18.09;53.08;96955.28;4997922;23;20041;-79
2022/07/05 02:35:27;;;;;;;;;;;;;;;18.07;52.96;96958.16;4925522;29;20038;-80
2022/07/05 03:23:03;;;;;;;3.30;1.13;;;;;;;17.55;52.43;96962.91;5089993;23;20040;-80
2022/07/05 03:43:16;;;;;;;1.42;1.33;;;;;;;17.62;55.59;96971.59;5871274;23;22193;-80
2022/07/05 03:48:31;;;;;;;1.92;0.80;;;;;;;17.70;53.04;96984.47;5765023;23;20040;-80
2022/07/05 03:57:26;;;;;;;1.90;0.90;;;;;;;17.66;52.51;96990.41;4887149;29;20068;-80
2022/07/05 04:00:09;;;;;;;1.40;1.23;;;;;;;17.64;52.82;96998.53;4918303;29;20036;-81
2022/07/05 10:48:30;;;;;;;2.03;1.00;;;;;;;25.96;34.82;97090.03;5764329;23;20052;-77
2022/07/05 10:50:59;;;;;;;2.92;0.90;;;;;;;25.99;34.76;97095.63;4899277;29;20095;-77
2022/07/05 10:53:30;;;;;;;2.47;0.75;;;;;;;25.99;34.69;97100.97;4899876;29;20072;-78
2022/07/05 10:55:59;;;;;;;0.60;0.60;;;;;;;26.01;34.61;97098.81;4900023;29;20056;-78
2022/07/05 10:58:30;;;;;;;1.38;0.70;;;;;;;26.01;34.27;97103.38;4899748;29;20135;-78
2022/07/05 11:14:33;;;;;;;2.17;1.45;;;;;;;26.36;34.71;97083.00;5717944;23;20316;-80
2022/07/05 11:17:29;;;;;;;4.15;1.33;;;;;;;26.41;34.33;97080.31;4899755;29;20052;-78
2022/07/05 11:20:26;;;;;;;3.50;2.13;;;;;;;26.44;33.75;97087.78;4899115;29;20559;-80
2022/07/05 11:23:12;;;;;;;4.47;1.92;;;;;;;26.48;33.55;97078.16;4899528;29;20088;-79
2022/07/05 11:25:44;;;;;;;0.60;0.40;;;;;;;26.49;33.58;97083.22;4899136;29;20471;-79
2022/07/05 11:40:31;;;;;;;1.05;0.70;;;;;;;26.56;32.10;97079.50;4841063;29;20060;-79
2022/07/05 11:42:59;;;;;;;3.13;0.77;;;;;;;26.51;32.31;97074.94;4843412;29;20065;-79
2022/07/05 11:45:27;;;;;;;1.40;0.55;;;;;;;26.51;32.55;97069.56;4843429;29;20049;-79
2022/07/05 11:47:57;;;;;;;0.85;0.70;;;;;;;26.52;32.34;97073.84;4843151;29;20058;-79
2022/07/05 11:50:30;;;;;;;3.00;1.48;;;;;;;26.55;32.05;97080.53;4848920;29;20054;-79
2022/07/05 11:52:59;;;;;;;1.02;0.65;;;;;;;26.53;31.69;97075.47;4856301;29;20065;-78
2022/07/05 11:55:32;;;;;;;2.00;0.70;;;;;;;26.50;31.23;97067.97;4853571;29;20050;-79
2022/07/05 11:58:00;;;;;;;0.65;0.40;;;;;;;26.51;32.18;97067.69;4854567;29;20081;-79
2022/07/05 12:00:30;;;;;;;3.05;0.40;;;;;;;26.55;31.11;97078.66;4860632;29;20114;-79
2022/07/05 12:02:58;;;;;;;2.17;0.60;;;;;;;26.57;31.27;97059.69;4858076;29;20054;-79
2022/07/05 12:05:31;;;;;;;2.38;0.52;;;;;;;26.58;31.42;97070.09;4843737;29;20454;-79
2022/07/05 12:07:59;;;;;;;2.40;0.80;;;;;;;26.57;30.82;97057.81;4843476;29;20054;-79
2022/07/05 12:13:46;;;;;;;1.90;0.90;;;;;;;26.57;31.50;97057.03;4822812;29;20059;-79
2022/07/05 12:16:14;;;;;;;1.58;0.63;;;;;;;26.59;30.40;97049.50;4822732;29;20099;-79
2022/07/05 12:18:52;;;;;;;0.40;0.40;;;;;;;26.61;30.81;97052.69;4834119;29;20557;-79
2022/07/05 12:21:21;;;;;;;2.67;0.60;;;;;;;26.62;30.76;97046.28;4842303;29;20058;-79
2022/07/05 12:23:49;;;;;;;0.95;0.50;;;;;;;26.67;30.24;97057.75;4843273;29;20421;-79
2022/07/05 12:26:19;;;;;;;1.15;1.05;;;;;;;26.68;29.66;97059.38;4843026;29;20483;-79
2022/07/05 12:28:48;;;;;;;1.65;1.15;;;;;;;26.69;29.65;97058.28;4842758;29;20058;-79
2022/07/05 12:31:18;;;;;;;2.75;1.00;;;;;;;26.73;30.49;97055.09;4842490;29;20145;-79
2022/07/05 12:33:46;;;;;;;0.95;0.55;;;;;;;26.76;29.69;97046.50;4842652;29;20083;-79
2022/07/05 12:36:15;;;;;;;0.68;0.60;;;;;;;26.80;30.21;97047.53;4841999;29;20149;-79
2022/07/05 12:38:43;;;;;;;0.50;0.50;;;;;;;26.82;29.39;97046.19;4842772;29;20050;-79
2022/07/05 12:41:11;;;;;;;1.08;0.50;;;;;;;26.82;29.01;97045.41;4842374;29;20149;-79
2022/07/05 12:43:52;;;;;;;2.83;0.50;;;;;;;26.80;29.16;97050.22;4842737;29;20117;-79
2022/07/05 12:46:20;;;;;;;1.98;0.47;;;;;;;26.79;29.63;97045.97;4842657;29;20446;-79
2022/07/05 12:48:53;;;;;;;1.00;0.55;;;;;;;26.80;30.07;97052.91;4842365;29;20054;-79
2022/07/05 12:51:34;;;;;;;1.13;0.73;;;;;;;26.81;30.20;97052.63;4842273;29;20074;-79
2022/07/05 13:00:01;;;;;;;2.15;0.65;;;;;;;26.79;29.71;97054.00;4862535;29;20050;-79
2022/07/05 13:02:37;;;;;;;1.15;0.75;;;;;;;26.75;29.95;97052.94;4858294;29;20489;-80
2022/07/05 13:05:08;;;;;;;2.13;0.70;;;;;;;26.74;30.98;97046.75;4845819;29;20581;-79
2022/07/05 13:07:42;;;;;;;0.88;0.50;;;;;;;26.77;30.58;97048.91;4843896;29;20089;-79
2022/07/05 13:10:17;;;;;;;0.40;0.40;;;;;;;26.79;30.13;97048.63;4842601;29;20054;-79
2022/07/05 13:12:46;;;;;;;2.13;0.30;;;;;;;26.81;30.03;97051.84;4842586;29;20050;-79
2022/07/05 13:15:15;;;;;;;0.65;0.40;;;;;;;26.83;29.97;97052.34;4842088;29;20046;-79
2022/07/05 13:17:44;;;;;;;1.80;0.40;;;;;;;26.85;29.38;97051.00;4842159;29;20057;-80
2022/07/05 13:20:14;;;;;;;0.47;0.30;;;;;;;26.88;29.51;97044.31;4862246;29;20114;-80
2022/07/05 13:22:42;;;;;;;1.83;0.93;;;;;;;26.89;29.51;97038.69;4862127;29;20061;-79
2022/07/05 13:25:11;;;;;;;3.22;0.68;;;;;;;26.87;28.99;97053.38;4850654;29;20054;-79
2022/07/05 13:27:38;;;;;;;1.73;0.65;;;;;;;26.83;29.13;97052.34;4843359;29;20089;-79
2022/07/05 13:30:07;;;;;;;1.13;0.40;;;;;;;26.81;29.58;97062.53;4842648;29;20053;-79
2022/07/05 13:32:36;;;;;;;0.30;0.30;;;;;;;26.80;29.41;97044.88;4842451;29;20050;-79
2022/07/05 13:35:04;;;;;;;1.00;0.50;;;;;;;26.80;29.28;97044.88;4841900;29;20153;-80
2022/07/05 13:37:32;;;;;;;0.68;0.40;;;;;;;26.80;29.54;97044.88;4842101;29;20470;-79
2022/07/05 13:40:00;;;;;;;0.82;0.40;;;;;;;26.77;29.37;97048.91;4841893;29;20062;-79
2022/07/05 13:42:27;;;;;;;1.50;0.47;;;;;;;26.71;29.12;97042.75;4842073;29;20053;-79
2022/07/05 13:44:55;;;;;;;1.27;0.57;;;;;;;26.69;28.92;97050.25;4841938;29;20050;-79
2022/07/05 13:47:22;;;;;;;0.50;0.30;;;;;;;26.70;29.12;97046.53;4843281;29;20057;-79
2022/07/05 13:50:30;;;;;;;0.93;0.40;;;;;;;26.70;29.20;97051.09;4845808;29;20077;-79
2022/07/05 13:52:39;;;;;;;0.32;0.25;;;;;;;26.69;28.67;97047.59;4845363;29;20137;-79
2022/07/05 13:55:08;;;;;;;1.42;0.50;;;;;;;26.68;29.24;97051.34;4845365;29;20123;-79
2022/07/05 13:57:35;;;;;;;1.95;0.65;;;;;;;26.70;28.98;97041.16;4845383;29;20062;-79
2022/07/05 14:00:04;;;;;;;1.20;0.60;;;;;;;26.73;29.73;97047.84;4845777;29;20050;-79
2022/07/05 14:02:32;;;;;;;1.80;0.40;;;;;;;26.74;29.18;97046.75;4846463;29;20058;-79
2022/07/05 14:05:01;;;;;;;1.45;0.45;;;;;;;26.75;29.58;97031.53;4846075;29;20130;-78
2022/07/05 14:07:31;;;;;;;;;;;;;;;26.75;29.92;97037.66;4846715;29;20058;-80
2022/07/05 14:09:59;;;;;;;1.60;0.43;;;;;;;26.75;29.43;97047.59;4846327;29;19924;-80
2022/07/05 14:12:26;;;;;;;1.02;0.52;;;;;;;26.74;28.73;97045.97;4846314;29;20064;-79
2022/07/05 14:14:54;;;;;;;0.28;0.28;;;;;;;26.70;28.27;97041.16;4845803;29;20085;-79
2022/07/05 14:17:22;;;;;;;0.52;0.30;;;;;;;26.66;28.10;97040.13;4845345;29;20097;-79
2022/07/05 14:19:49;;;;;;;1.98;0.55;;;;;;;26.63;28.49;97034.50;4844963;29;20057;-79
2022/07/05 14:22:18;;;;;;;2.97;0.60;;;;;;;26.59;28.31;97039.63;4844771;29;20437;-79
2022/07/05 14:24:46;;;;;;;0.85;0.30;;;;;;;26.55;27.86;97030.50;4845127;29;20057;-79
2022/07/05 14:27:14;;;;;;;1.65;0.38;;;;;;;26.54;28.75;97028.88;4845000;29;20093;-79
2022/07/05 14:29:41;;;;;;;0.50;0.30;;;;;;;26.56;29.21;97029.44;4844873;29;20057;-79
2022/07/05 14:32:09;;;;;;;0.60;0.40;;;;;;;26.56;29.20;97029.44;4844317;29;20058;-79
2022/07/05 14:34:37;;;;;;;3.28;0.82;;;;;;;26.55;29.29;97027.84;4844714;29;20081;-79
2022/07/05 14:37:05;;;;;;;0.80;0.50;;;;;;;26.55;29.08;97032.38;4844874;29;20053;-79
2022/07/05 14:39:34;;;;;;;1.50;0.40;;;;;;;26.54;29.41;97033.44;4844781;29;20489;-79
2022/07/05 14:42:02;;;;;;;0.25;0.25;;;;;;;26.53;29.26;97029.97;4844392;29;20054;-79
2022/07/05 14:44:31;;;;;;;0.60;0.50;;;;;;;26.51;29.20;97034.81;4844260;29;20508;-79
2022/07/05 14:46:58;;;;;;;1.08;0.50;;;;;;;26.47;29.15;97031.06;4844338;29;20102;-79
2022/07/05 14:49:26;;;;;;;1.02;0.30;;;;;;;26.44;28.75;97031.63;4844232;29;20140;-79
2022/07/05 14:51:54;;;;;;;0.75;0.57;;;;;;;26.42;28.95;97028.41;4844350;29;20085;-79
2022/07/05 14:54:21;;;;;;;1.60;0.60;;;;;;;26.39;29.10;97023.59;4844483;29;20086;-79
2022/07/05 14:56:50;;;;;;;0.65;0.40;;;;;;;26.36;28.95;97019.59;4844411;29;20049;-78
2022/07/05 14:59:26;;;;;;;0.50;0.50;;;;;;;26.34;29.37;97016.41;4843647;29;20076;-79
2022/07/05 15:01:53;;;;;;;1.92;0.60;;;;;;;26.32;29.63;97013.19;4843937;29;20061;-79
2022/07/05 15:04:21;;;;;;;1.77;0.40;;;;;;;26.30;29.64;97005.47;4844394;29;20568;-79
2022/07/05 15:06:49;;;;;;;2.13;0.43;;;;;;;26.29;28.83;97003.06;4844296;29;20092;-79
2022/07/05 15:09:16;;;;;;;1.08;0.32;;;;;;;26.25;28.71;97008.13;4844159;29;20085;-79
2022/07/05 15:11:44;;;;;;;1.33;0.70;;;;;;;26.24;28.48;97006.56;4844026;29;20093;-79
2022/07/05 15:14:13;;;;;;;0.30;0.30;;;;;;;26.23;27.89;97006.81;4844323;29;20106;-79
2022/07/05 15:16:41;;;;;;;0.88;0.45;;;;;;;26.20;28.16;97008.16;4844417;29;20075;-79
2022/07/05 15:19:09;;;;;;;0.68;0.50;;;;;;;26.19;28.04;97009.22;4845985;29;20065;-79
2022/07/05 15:21:36;;;;;;;2.78;0.52;;;;;;;26.20;27.47;97010.03;4858102;29;20061;-79
2022/07/05 15:24:04;;;;;;;0.80;0.40;;;;;;;26.19;28.14;97006.53;4859516;29;20058;-79
2022/07/05 15:26:44;;;;;;;0.38;0.38;;;;;;;26.20;27.97;97010.84;4845907;29;20072;-80
2022/07/05 15:29:13;;;;;;;1.95;0.35;;;;;;;26.19;27.96;97008.44;4844291;29;20053;-79
2022/07/05 15:31:41;;;;;;;3.75;0.55;;;;;;;26.16;28.23;97009.78;4843884;29;20058;-78
2022/07/05 15:34:09;;;;;;;1.75;0.40;;;;;;;26.14;28.08;97013.81;4843919;29;20106;-79
2022/07/05 15:36:37;;;;;;;2.45;0.38;;;;;;;26.11;28.14;97001.78;4843810;29;20473;-79
2022/07/05 15:39:06;;;;;;;0.85;0.40;;;;;;;26.12;28.54;97003.38;4843443;29;20462;-79
2022/07/05 15:41:35;;;;;;;1.38;0.50;;;;;;;26.13;28.79;96999.63;4843752;29;20065;-79
2022/07/05 15:44:04;;;;;;;1.27;0.40;;;;;;;26.13;28.65;96996.13;4843622;29;20069;-79
2022/07/05 15:49:15;;;;;;;3.25;0.50;;;;;;;26.12;28.00;96995.34;4843825;29;20046;-79
2022/07/05 15:51:43;;;;;;;2.92;0.50;;;;;;;26.12;27.73;96991.88;4865767;29;20050;-79
2022/07/05 15:54:11;;;;;;;2.50;0.50;;;;;;;26.10;27.95;97000.16;4864520;29;20058;-79
2022/07/05 15:56:40;;;;;;;1.20;0.60;;;;;;;26.10;28.14;96994.81;4846994;29;20049;-79
2022/07/05 15:59:08;;;;;;;2.22;0.80;;;;;;;26.09;28.47;96993.22;4845355;29;20110;-79
2022/07/05 16:01:37;;;;;;;1.55;0.70;;;;;;;26.08;28.14;97003.09;4843929;29;20148;-79
2022/07/05 16:04:05;;;;;;;2.65;0.52;;;;;;;26.06;28.53;97002.59;4843523;29;20054;-79
2022/07/05 16:06:33;;;;;;;1.17;0.50;;;;;;;26.07;28.57;96995.38;4843605;29;20053;-79
2022/07/05 16:09:01;;;;;;;1.38;0.50;;;;;;;26.06;28.07;96999.09;4843325;29;20106;-79
2022/07/05 16:11:29;;;;;;;2.30;0.60;;;;;;;26.05;28.36;96992.16;4843412;29;20133;-79
2022/07/05 16:13:56;;;;;;;2.08;0.50;;;;;;;26.06;28.41;96991.09;4843375;29;20144;-79
2022/07/05 16:16:24;;;;;;;2.95;0.57;;;;;;;26.05;28.02;96995.63;4844378;29;20086;-79
2022/07/05 16:18:53;;;;;;;0.75;0.52;;;;;;;26.05;27.75;96992.97;4843820;29;20090;-79
2022/07/05 16:21:21;;;;;;;2.50;0.60;;;;;;;26.05;27.95;96989.50;4842984;29;20123;-79
2022/07/05 16:23:51;;;;;;;1.30;0.45;;;;;;;26.05;27.61;96992.16;4844242;29;20046;-79
2022/07/05 16:26:20;;;;;;;1.90;0.50;;;;;;;26.04;27.92;96991.38;4852862;29;20121;-79
2022/07/05 16:28:48;;;;;;;1.75;0.30;;;;;;;26.05;28.27;96992.16;4851962;29;20115;-79
2022/07/05 16:31:16;;;;;;;2.90;0.50;;;;;;;26.04;28.14;96991.38;4845312;29;20057;-79
2022/07/05 16:33:47;;;;;;;2.92;0.35;;;;;;;26.04;28.46;96990.56;4843017;29;20077;-79
2022/07/05 16:36:18;;;;;;;4.07;0.50;;;;;;;26.04;28.58;96988.69;4843076;29;20584;-79
2022/07/05 16:38:46;;;;;;;3.15;0.60;;;;;;;26.03;28.52;96983.63;4842588;29;20114;-79
2022/07/05 16:41:14;;;;;;;0.38;0.30;;;;;;;26.03;28.97;96986.28;4842791;29;20057;-79
2022/07/05 16:43:43;;;;;;;2.47;0.73;;;;;;;26.02;29.07;96990.03;4843020;29;20102;-79
2022/07/05 16:46:12;;;;;;;2.15;0.60;;;;;;;26.01;29.12;96986.56;4842790;29;20125;-79
2022/07/05 16:48:42;;;;;;;3.67;0.60;;;;;;;26.02;29.43;96984.66;4842521;29;20058;-78
2022/07/05 16:51:11;;;;;;;0.60;0.60;;;;;;;26.02;29.15;96990.03;4842007;29;20121;-79
2022/07/05 16:53:41;;;;;;;4.25;0.90;;;;;;;26.01;28.88;96983.09;4852339;29;20054;-79
2022/07/05 16:56:10;;;;;;;1.08;0.80;;;;;;;26.02;29.29;96982.81;4862633;29;20054;-79
2022/07/05 16:58:40;;;;;;;0.93;0.40;;;;;;;26.03;29.51;96978.28;4858454;29;20050;-79
2022/07/05 17:01:10;;;;;;;1.80;0.70;;;;;;;26.03;29.43;96983.63;4845203;29;20090;-78
2022/07/05 17:03:38;;;;;;;4.57;4.07;;;;;;;26.04;29.41;96977.19;4843687;29;20513;-79
2022/07/05 17:06:06;;;;;;;2.28;1.15;;;;;;;26.03;29.02;96973.72;4844375;29;20086;-79
2022/07/05 17:08:34;;;;;;;4.78;2.08;;;;;;;26.01;29.44;96978.53;4843229;29;20058;-82
2022/07/05 17:11:04;;;;;;;7.25;2.97;;;;;;;26.00;29.22;96984.16;4842512;29;20100;-79
2022/07/05 17:13:32;;;;;;;5.35;2.80;;;;;;;25.99;29.62;96977.22;4843136;29;20140;-79
2022/07/05 17:15:59;;;;;;;1.02;0.60;;;;;;;25.97;29.19;96988.16;4842817;29;20053;-79
2022/07/05 17:18:27;;;;;;;4.60;0.90;;;;;;;25.96;29.21;96991.13;4842408;29;20052;-79
2022/07/05 17:20:55;;;;;;;5.82;2.03;;;;;;;25.96;29.24;96993.81;4842594;29;20054;-78
2022/07/05 17:24:03;;;;;;;8.95;4.18;;;;;;;25.96;29.47;96989.25;4852886;29;20041;-83
2022/07/05 17:26:32;;;;;;;1.38;0.63;;;;;;;25.96;28.81;96991.13;4843930;29;20057;-78
2022/07/05 17:29:04;;;;;;;1.90;0.30;;;;;;;25.94;28.87;96991.38;4843315;29;20065;-77
2022/07/05 17:31:32;;;;;;;1.75;0.80;;;;;;;25.95;29.08;96992.19;4842506;29;20432;-78
2022/07/05 17:34:00;;;;;;;0.60;0.60;;;;;;;25.93;29.05;96991.66;4846837;29;20140;-78
2022/07/05 17:36:28;;;;;;;1.95;0.50;;;;;;;25.92;29.20;96993.53;4847576;29;20356;-78
2022/07/05 17:38:56;;;;;;;0.98;0.52;;;;;;;25.92;29.46;96992.75;4851939;29;20053;-79
2022/07/05 17:41:28;;;;;;;2.38;0.60;;;;;;;25.91;29.55;96986.59;4847730;29;20106;-78
2022/07/05 17:43:57;;;;;;;0.60;0.50;;;;;;;25.91;29.35;96999.97;4843488;29;20061;-79
2022/07/05 17:46:25;;;;;;;0.60;0.60;;;;;;;25.89;29.12;97002.91;4892920;23;20109;-79
2022/07/05 17:48:55;;;;;;;1.85;0.50;;;;;;;25.87;28.95;96999.66;4881163;29;20431;-80
2022/07/05 17:51:26;;;;;;;1.75;0.43;;;;;;;25.86;29.41;97010.63;4881298;29;20053;-83
2022/07/05 17:54:36;;;;;;;1.80;0.57;;;;;;;25.83;28.97;97006.63;4881432;29;20060;-81
2022/07/05 17:57:07;;;;;;;4.35;3.25;;;;;;;25.82;29.46;97012.22;4852487;29;20057;-81
2022/07/05 17:59:37;;;;;;;;;;;;;;;25.81;29.52;97008.75;4845107;29;20061;-82
2022/07/05 18:02:05;;;;;;;1.88;0.73;;;;;;;25.77;29.46;97007.69;4860878;29;19947;-81
2022/07/05 18:04:34;;;;;;;1.42;0.80;;;;;;;25.76;29.41;97011.44;4863188;29;20355;-82
2022/07/05 18:07:02;;;;;;;1.63;1.13;;;;;;;25.73;30.25;97009.28;4868618;29;20053;-82
2022/07/05 18:09:32;;;;;;;1.13;0.50;;;;;;;25.70;29.88;97001.81;4878209;29;20121;-82
2022/07/05 18:12:01;;;;;;;1.33;0.70;;;;;;;25.66;30.15;97001.53;4869060;29;20132;-82
2022/07/05 18:14:30;;;;;;;3.42;1.67;;;;;;;25.64;30.03;97002.88;4874207;29;20062;-82
2022/07/05 18:17:04;;;;;;;2.35;0.75;;;;;;;25.61;30.55;97014.13;4874226;29;20065;-81
2022/07/05 18:19:34;;;;;;;1.05;0.70;;;;;;;25.57;30.57;97013.06;4861492;29;20081;-79
2022/07/05 18:22:02;;;;;;;1.55;0.85;;;;;;;25.51;30.59;97004.22;4877126;29;20038;-82
2022/07/05 18:24:37;;;;;;;1.33;0.60;;;;;;;25.48;30.73;97002.91;4884715;29;20037;-83
2022/07/05 18:27:07;;;;;;;8.63;6.47;;;;;;;25.46;30.76;97006.91;4881309;29;20057;-84
2022/07/05 18:29:49;;;;;;;3.53;2.20;;;;;;;25.41;30.79;97007.72;4868819;29;20049;-83
2022/07/05 18:32:20;;;;;;;1.42;1.25;;;;;;;25.38;31.16;97010.91;4863704;29;20102;-83
2022/07/05 18:34:49;;;;;;;1.45;0.85;;;;;;;25.36;31.25;97006.91;4864285;29;20059;-81
2022/07/05 18:37:19;;;;;;;1.70;0.98;;;;;;;25.31;31.29;97002.38;4864585;29;20057;-81
2022/07/05 18:39:49;;;;;;;2.35;0.73;;;;;;;25.28;31.50;97000.25;4862747;29;20060;-80
2022/07/05 18:42:18;;;;;;;1.58;0.90;;;;;;;25.26;31.65;97007.72;4860411;29;20056;-81
2022/07/05 18:44:47;;;;;;;0.80;0.77;;;;;;;25.23;31.97;97008.22;4857383;29;20464;-82
2022/07/05 18:47:15;;;;;;;2.15;0.75;;;;;;;25.21;32.13;97010.34;4867444;29;20142;-82
2022/07/05 18:49:45;;;;;;;1.08;0.65;;;;;;;25.17;32.13;97019.97;4865803;29;20272;-81
2022/07/05 18:52:15;;;;;;;1.95;0.85;;;;;;;25.16;32.46;97015.66;4864372;29;20465;-81
2022/07/05 18:54:43;;;;;;;0.50;0.50;;;;;;;25.12;32.43;97011.94;4865005;29;20049;-80
2022/07/05 18:57:11;;;;;;;2.78;0.75;;;;;;;25.08;32.56;97017.81;4865043;29;20094;-80
2022/07/05 18:59:39;;;;;;;1.50;0.70;;;;;;;25.05;32.48;97018.31;4865353;29;20062;-81
2022/07/05 19:02:07;;;;;;;2.17;0.90;;;;;;;25.01;32.63;97022.56;4869921;29;20122;-81
2022/07/05 19:04:35;;;;;;;2.90;0.82;;;;;;;24.98;32.76;97019.66;4865553;29;20504;-81
2022/07/05 19:15:22;;;;;;;5.93;3.63;;;;;;;24.85;33.41;97024.41;4865076;29;20049;-81
2022/07/05 19:17:51;;;;;;;3.70;0.85;;;;;;;24.80;33.50;97019.06;4866498;29;20424;-81
2022/07/05 19:20:19;;;;;;;1.27;1.00;;;;;;;24.74;36.03;97024.66;4864683;29;20062;-81
2022/07/05 19:23:09;;;;;;;2.60;0.85;;;;;;;24.60;36.18;97030.50;4864224;29;20053;-81
2022/07/05 19:25:37;;;;;;;1.17;0.68;;;;;;;24.46;36.28;97024.00;4863898;29;20049;-81
2022/07/05 19:28:05;;;;;;;1.20;1.00;;;;;;;24.34;36.74;97031.41;4864083;29;20114;-81
2022/07/05 19:30:42;;;;;;;2.47;1.13;;;;;;;24.22;36.64;97027.06;4866197;29;20049;-82
2022/07/05 19:33:10;;;;;;;7.68;1.00;;;;;;;24.09;36.72;97035.53;4868568;29;20405;-81
2022/07/05 19:35:38;;;;;;;1.65;1.42;;;;;;;23.95;37.24;97034.38;4866473;29;20045;-81
2022/07/05 19:38:06;;;;;;;1.85;1.60;;;;;;;23.81;37.37;97040.16;4864583;29;20081;-81
2022/07/05 19:40:35;;;;;;;3.58;1.40;;;;;;;23.67;37.31;97036.28;4864500;29;20182;-80
2022/07/05 19:43:07;;;;;;;2.83;1.25;;;;;;;23.56;37.48;97039.94;4885566;29;20073;-83
2022/07/05 19:45:35;;;;;;;2.80;1.00;;;;;;;23.44;37.52;97038.25;4885874;29;20046;-82
2022/07/05 19:48:04;;;;;;;2.75;1.00;;;;;;;23.37;37.54;97042.16;4887741;29;20500;-81
2022/07/05 19:50:32;;;;;;;2.75;0.90;;;;;;;23.28;38.26;97036.50;4869579;29;20152;-81
2022/07/05 19:53:00;;;;;;;1.58;0.95;;;;;;;23.19;38.37;97038.81;4865387;29;20069;-81
2022/07/05 19:55:29;;;;;;;1.55;1.30;;;;;;;23.13;38.61;97042.47;4864241;29;20046;-80
2022/07/05 19:57:58;;;;;;;5.72;1.52;;;;;;;23.07;38.65;97042.66;4862065;29;20053;-81
2022/07/05 20:00:26;;;;;;;2.28;1.17;;;;;;;22.98;38.73;97051.09;4846846;29;20057;-79
2022/07/05 20:02:53;;;;;;;1.65;0.90;;;;;;;22.89;39.15;97052.56;4862160;29;20465;-81
2022/07/05 20:05:21;;;;;;;3.63;1.80;;;;;;;22.78;39.25;97054.34;4852837;29;20064;-80
2022/07/05 20:07:49;;;;;;;1.85;1.33;;;;;;;22.68;39.23;97050.75;4844529;29;20106;-79
2022/07/05 20:10:17;;;;;;;2.10;1.20;;;;;;;22.56;39.31;97051.66;4853896;29;20064;-79
2022/07/05 20:12:45;;;;;;;2.22;1.02;;;;;;;22.47;39.78;97061.13;4862631;29;20061;-80
2022/07/05 20:15:15;;;;;;;2.28;1.10;;;;;;;22.37;40.06;97055.69;4862554;29;20068;-80
2022/07/05 20:17:43;;;;;;;1.90;0.90;;;;;;;22.28;39.94;97057.13;4862501;29;20053;-81
2022/07/05 20:20:12;;;;;;;3.10;0.95;;;;;;;22.15;39.89;97061.75;4861852;29;20419;-80
2022/07/05 20:22:40;;;;;;;2.15;1.00;;;;;;;22.05;40.16;97061.59;4861961;29;20512;-81
2022/07/05 20:25:08;;;;;;;2.95;1.10;;;;;;;21.94;40.57;97070.47;4862143;29;20057;-82
2022/07/05 20:27:37;;;;;;;2.55;1.13;;;;;;;21.85;40.51;97063.94;4861797;29;20056;-81
2022/07/05 20:30:06;;;;;;;1.50;1.25;;;;;;;21.76;40.79;97072.31;4860704;29;20057;-81
2022/07/05 20:32:35;;;;;;;1.95;1.10;;;;;;;21.70;41.07;97069.81;4861062;29;20049;-81
2022/07/05 20:35:03;;;;;;;1.10;1.00;;;;;;;21.63;40.88;97069.97;4861069;29;20057;-81
2022/07/05 20:37:31;;;;;;;2.45;0.98;;;;;;;21.60;40.72;97073.09;4860512;29;20061;-80
2022/07/05 20:40:00;;;;;;;1.58;1.15;;;;;;;21.52;40.99;97073.53;4860153;29;20059;-80
2022/07/05 20:42:28;;;;;;;3.75;1.02;;;;;;;21.46;41.26;97071.81;4860603;29;20087;-80
2022/07/05 20:44:56;;;;;;;1.55;0.90;;;;;;;21.40;41.44;97074.34;4861197;29;20049;-80
2022/07/05 20:47:24;;;;;;;3.25;1.10;;;;;;;21.33;41.36;97067.59;4861747;29;20057;-80
2022/07/05 20:49:53;;;;;;;1.65;0.90;;;;;;;21.26;41.52;97072.25;4860951;29;20461;-80
2022/07/05 20:52:22;;;;;;;3.28;1.17;;;;;;;21.17;41.57;97071.81;4861187;29;20053;-80
2022/07/05 20:54:50;;;;;;;2.60;1.30;;;;;;;21.12;41.99;97077.00;4861539;29;20050;-80
2022/07/05 20:57:18;;;;;;;5.57;1.75;;;;;;;21.07;42.14;97090.19;4861904;29;20105;-81
2022/07/05 20:59:46;;;;;;;1.20;1.10;;;;;;;21.04;42.70;97080.88;4861868;29;20053;-82
2022/07/05 21:02:15;;;;;;;2.42;1.30;;;;;;;21.06;43.38;97092.03;4861764;29;20117;-80
2022/07/05 21:04:43;;;;;;;1.73;1.40;;;;;;;21.12;43.13;97100.88;4861882;29;20136;-81
2022/07/05 21:07:14;;;;;;;2.67;1.50;;;;;;;21.13;42.82;97094.56;4860953;29;20191;-80
2022/07/05 21:09:42;;;;;;;2.13;1.30;;;;;;;21.07;42.37;97091.00;4860862;29;20056;-80
2022/07/05 21:12:11;;;;;;;3.28;1.42;;;;;;;21.01;42.74;97091.13;4872861;29;20045;-82
2022/07/05 21:14:39;;;;;;;2.80;1.38;;;;;;;20.92;42.87;97099.44;4881152;29;20057;-82
2022/07/05 21:17:07;;;;;;;1.70;1.40;;;;;;;20.83;43.32;97097.41;4870460;29;20057;-80
2022/07/05 21:19:36;;;;;;;3.47;1.42;;;;;;;20.74;43.47;97100.44;4862230;29;20080;-81
2022/07/05 21:22:06;;;;;;;2.10;1.42;;;;;;;20.68;43.55;97111.16;4861002;29;20148;-80
2022/07/05 21:24:37;;;;;;;4.32;1.30;;;;;;;20.63;43.78;97108.41;4860854;29;20113;-80
2022/07/05 21:27:06;;;;;;;2.60;1.40;;;;;;;20.59;43.74;97121.31;4860796;29;20050;-81
2022/07/05 21:29:34;;;;;;;3.45;1.55;;;;;;;20.57;43.74;97120.75;4860723;29;20053;-80
2022/07/05 21:32:02;;;;;;;1.90;1.17;;;;;;;20.55;43.51;97114.84;4860335;29;20572;-80
2022/07/05 21:34:31;;;;;;;2.47;1.40;;;;;;;20.53;43.87;97120.41;4860670;29;20054;-80
2022/07/05 21:36:59;;;;;;;1.42;1.30;;;;;;;20.49;43.73;97121.91;4860514;29;20496;-80
2022/07/05 21:39:27;;;;;;;2.17;1.65;;;;;;;20.43;43.98;97124.66;4860509;29;20053;-80
2022/07/05 21:41:56;;;;;;;2.90;1.50;;;;;;;20.34;44.17;97125.00;4860371;29;20113;-80
2022/07/05 21:44:24;;;;;;;1.52;1.25;;;;;;;20.29;44.33;97118.78;4860550;29;20113;-80
2022/07/05 21:46:52;;;;;;;4.05;1.50;;;;;;;20.22;44.47;97115.44;4860283;29;20061;-80
2022/07/05 21:49:20;;;;;;;3.85;1.33;;;;;;;20.16;44.50;97114.53;4860602;29;20049;-80
2022/07/05 21:51:49;;;;;;;3.08;1.30;;;;;;;20.08;44.84;97117.53;4860398;29;20071;-80
2022/07/05 21:54:17;;;;;;;1.33;1.23;;;;;;;20.00;44.83;97118.66;4860544;29;20046;-80
2022/07/05 21:56:45;;;;;;;1.60;1.17;;;;;;;19.92;45.07;97113.72;4860216;29;20056;-80
2022/07/05 22:04:47;;;;;;;1.40;1.30;;;;;;;19.78;45.58;97113.09;4860646;29;20057;-80
2022/07/05 22:07:15;;;;;;;2.38;1.80;;;;;;;19.78;45.48;97114.94;4860168;29;20061;-79
2022/07/05 22:09:43;;;;;;;5.32;1.83;;;;;;;19.75;45.19;97116.22;4863208;29;20058;-80
2022/07/05 22:12:11;;;;;;;2.92;1.33;;;;;;;19.72;45.25;97117.47;4863309;29;20098;-80
2022/07/05 22:14:41;;;;;;;5.30;1.60;;;;;;;19.67;45.38;97121.81;4863803;29;20564;-80
2022/07/05 22:17:09;;;;;;;3.45;1.42;;;;;;;19.63;45.54;97118.00;4863678;29;20061;-80
2022/07/05 22:19:37;;;;;;;1.20;1.10;;;;;;;19.55;45.70;97116.50;4863328;29;20424;-80
2022/07/05 22:22:05;;;;;;;2.40;1.35;;;;;;;19.50;45.79;97125.09;4863163;29;20119;-80
2022/07/05 22:24:34;;;;;;;2.20;1.75;;;;;;;19.44;45.86;97119.88;4863462;29;20057;-80
2022/07/05 22:27:02;;;;;;;2.78;1.35;;;;;;;19.39;46.12;97119.75;4863377;29;20569;-79
2022/07/05 22:29:30;;;;;;;3.40;1.60;;;;;;;19.35;46.35;97120.22;4863468;29;20476;-80
2022/07/05 22:31:59;;;;;;;2.30;1.40;;;;;;;19.33;46.53;97124.94;4863232;29;20049;-80
2022/07/05 22:34:26;;;;;;;1.55;1.33;;;;;;;19.31;46.32;97119.06;4863157;29;20053;-80
2022/07/05 22:36:54;;;;;;;1.27;1.17;;;;;;;19.29;46.69;97118.47;4863048;29;20053;-80
2022/07/05 22:39:22;;;;;;;3.85;1.52;;;;;;;19.27;46.65;97120.53;4863243;29;20057;-79
2022/07/05 22:41:50;;;;;;;1.50;1.38;;;;;;;19.25;46.92;97116.50;4862803;29;20053;-80
2022/07/05 22:44:18;;;;;;;3.13;1.55;;;;;;;19.24;46.73;97125.44;4863286;29;20050;-80
2022/07/05 22:46:46;;;;;;;5.55;1.48;;;;;;;19.21;46.92;97120.63;4862824;29;20054;-80
2022/07/05 22:49:15;;;;;;;3.15;1.40;;;;;;;19.21;47.20;97123.25;4862701;29;20059;-82